Share

Levant, KS

9:03 AM CDT on April 24, 2014 (GMT -0500)
KKSLEVAN2 Elev 3293 ft | 39.30 °N, 101.20 °W | Change Station

Current weather conditions updated 1 minute ago

Clear
Clear
51.5 °F
Feels Like 51.5 °F
N
18.0
Wind Variable Wind from NW
Gusts 19.0 mph
Sunrise 6:55 AM
Sunset 8:31 PM
Moon Waning Crescent

Today is forecast to be Much Cooler than yesterday.

Pressure 29.90 in
Visibility 10.0 miles
Clouds Clear
Dew Point 38 °F
Humidity 59%
Rainfall 0.00 in
Snow Depth Not available.
UV 2 out of 16
Pollen 10.00 out of 12
Air Quality Not available.
Flu Activity No Activity
METAR KGLD 241353Z AUTO 33020KT 10SM CLR 09/M02 A2996 RMK AO2 SLP124 T00941022

More Conditions Fewer Conditions

Pressure 29.90 in
Visibility 10.0 miles
Clouds Clear
Dew Point 38 °F
Humidity 59%
Rainfall 0.00 in
Snow Depth Not available.
UV 2 out of 16
Pollen 10.00 out of 12
Air Quality Not available.
Flu Activity No Activity
METAR KGLD 241353Z AUTO 33020KT 10SM CLR 09/M02 A2996 RMK AO2 SLP124 T00941022

More Conditions Fewer Conditions

10-Day Weather Forecast

Almanac

Astronomy

Apr. 24, 2014 Rise Set
Actual Time 6:55 AM CDT 8:31 PM CDT
Civil Twilight 6:26 AM CDT 9:00 PM CDT
Nautical Twilight 5:52 AM CDT 9:34 PM CDT
Astronomical Twilight 5:16 AM CDT 10:10 PM CDT
Moon 4:05 AM CDT 3:50 PM CDT
Length of Visible Light 14h 33m
Length of Day
13h 36m
Tomorrow will be 2m 20s longer.
Waning Crescent, 25% of the Moon is Illuminated
Today
Waning Crescent
Apr 29
New
May 6
First Quarter
May 14
Full
May 21
Last Quarter

Today's Extremes

State Highs State Lows

Community

  • Clouds mov'n in
    Clouds mov'n in
  • Stacked
    Stacked
  • clouds approaching Red Sox Nation
    clouds approaching Red Sox Nation
  • Balance
    Balance
  • Citysky
    Citysky

WunderPhotos

Upload Photos

1,704,612 photos uploaded!

Nearby

Snow Depth

Station Depth Elevation
No new snow has been reported.

Coastal Water Temperatures

Place Temperature
No Stations Reporting

Earthquake Activity

City Distance Mag. Time & Date
No recent earthquake activity has been reported nearby.
Minimum magnitude displayed is 2.5.

Nearby Weather Stations

Station Location Temp. Windchill Dew Point Humidity Wind Precip. Elev Updated Type
Levant, KS 51.5 °F - 38 °F 59% NW  at  18.0 mph 0.00 in / hr 3293 ft 9:01 AM CDT Rapid Fire
Jason, Colby, KS 51.8 °F - 38 °F 60% NW  at  17.0 mph 0.00 in / hr 3192 ft 9:03 AM CDT Rapid Fire
630 Woofter Ave, Colby, KS 49.8 °F 44 °F 37 °F 62% NW  at  17.0 mph 0.00 in / hr 3186 ft 9:03 AM CDT Rapid Fire
145 E Cherry - K0FJ, Colby, KS 49.9 °F 47 °F 37 °F 60% NW  at  8.0 mph 0.00 in / hr 3150 ft 9:02 AM CDT Normal
NE Colby, Colby, KS 50.5 °F - 38 °F 62% NW  at  11.0 mph 0.00 in / hr 3097 ft 9:00 AM CDT Normal
Beaver Creek Weather, Goodland, KS 51.2 °F - 32 °F 48% WNW  at  14.0 mph 0.00 in / hr 3450 ft 8:03 AM MDT Rapid Fire

Show More Stations Show Fewer Stations

What do you think?

We're not finished. Please let us know what you like, what you don't like, and what you are still missing.